Latest Coastal Weather Observations for Moruya Airport

IDN60701

Issued at 12:41 pm EST Saturday 23 May 2015 (issued every 10 minutes, with the page automatically refreshed every 10 minutes)

About coastal observations | Map of coastal stations | Coastal observations for NSW | Marine services | Other Formats
Station Details ID: 069148 Name: MORUYA AIRPORT AWS Lat: -35.90 Lon: 150.14 Height: 4.0 m
Data from the previous 72 hours. | See also: Recent months for locations in New South Wales
Date/Time
EST
Temp

°C
Wind Pressure Rain
since 9am
mm
Weather Cloud Vis
km
Sea
Height
m
Swell
Dir
 
Speed
knots
Gust
knots
hPa Trend Height
m
Period
s
Dir
23/12:30pm 15.5 SSE 10 13 1029.3 - 0.0 - - 10 - - - -
23/12:00pm 15.8 S 9 11 1029.8 - 0.0 - - 10 - - - -
23/11:30am 15.5 SSW 10 13 1030.1 - 0.0 - - 10 - - - -
23/11:00am 15.5 S 8 13 1030.3 - 0.0 - - 10 - - - -
23/10:30am 14.7 WSW 5 8 1030.6 - 0.0 - - 10 - - - -
23/10:00am 13.9 W 5 7 1030.6 - 0.0 - - 10 - - - -
23/09:30am 12.5 WSW 6 8 1030.6 - 0.0 - - 10 - - - -
23/09:00am 11.5 WSW 5 7 1030.4 - 0.0 - - 10 - - - -
23/08:30am 11.0 WSW 5 6 1030.0 - 0.0 - - 10 - - - -
23/08:00am 10.0 W 5 9 1029.9 - 0.0 - - 10 - - - -
23/07:30am 8.7 W 5 7 1029.6 - 0.0 - - 10 - - - -
23/07:00am 7.5 WSW 5 7 1029.5 - 0.0 - - 10 - - - -
23/06:30am 7.8 WSW 5 7 1029.1 - 0.0 - Partly cloudy 10 - - - -
23/06:00am 8.0 WSW 5 7 1028.6 - 0.0 - - 10 - - - -
23/05:30am 8.6 WSW 5 9 1028.5 - 0.0 - - 10 - - - -
23/05:00am 9.6 WSW 6 9 1028.3 - 0.0 - Partly cloudy 10 - - - -
23/04:30am 9.7 W 6 8 1028.2 - 0.0 - Cloudy 10 - - - -
23/04:00am 9.1 W 6 10 1028.0 - 0.0 - Partly cloudy 10 - - - -
23/03:30am 8.5 W 5 8 1028.0 - 0.0 - - 10 - - - -
23/03:00am 8.9 W 5 9 1028.1 - 0.0 - - 10 - - - -
23/02:30am 9.2 W 6 9 1028.3 - 0.0 - Partly cloudy 10 - - - -
23/02:00am 9.0 W 7 11 1028.6 - 0.0 - Partly cloudy 10 - - - -
23/01:30am 9.0 W 7 12 1028.5 - 0.0 - - 10 - - - -
23/01:00am 9.3 W 7 8 1028.7 - 0.0 - - 10 - - - -
23/12:30am 10.9 SW 12 16 1028.6 - 0.0 - - 10 - - - -
23/12:00am 10.9 SW 11 17 1028.6 - 0.0 - - 10 - - - -
 
Date/Time
EST
Temp

°C
Wind Pressure Rain
since 9am
mm
Weather Cloud Vis
km
Sea
Height
m
Swell
Dir
 
Speed
knots
Gust
knots
hPa Trend Height
m
Period
s
Dir
22/11:30pm 10.8 SW 11 14 1028.5 - 0.0 - - 10 - - - -
22/11:00pm 10.6 SW 11 15 1028.4 - 0.0 - - 10 - - - -
22/10:30pm 10.4 SW 10 13 1028.3 - 0.0 - - 10 - - - -
22/10:00pm 10.4 SW 8 12 1028.1 - 0.0 - - 10 - - - -
22/09:30pm 11.0 SW 9 11 1027.8 - 0.0 - - 10 - - - -
22/09:00pm 11.0 SSW 8 10 1027.7 - 0.0 - - 10 - - - -
22/08:30pm 11.2 SW 8 10 1027.5 - 0.0 - - 10 - - - -
22/08:00pm 11.6 SW 8 11 1027.3 - 0.0 - Partly cloudy 10 - - - -
22/07:30pm 11.9 SW 9 11 1027.2 - 0.0 - - 10 - - - -
22/07:00pm 11.7 SW 5 8 1027.1 - 0.0 - - 10 - - - -
22/06:30pm 12.3 WSW 6 10 1026.6 - 0.0 - Partly cloudy 10 - - - -
22/06:00pm 12.5 SW 6 8 1026.3 - 0.0 - Mostly clear 10 - - - -
22/05:30pm 13.4 SW 8 9 1026.0 - 0.0 - Partly cloudy 10 - - - -
22/05:00pm 14.2 SSW 9 14 1025.6 - 0.0 - Cloudy 10 - - - -
22/04:30pm 14.5 SSW 9 15 1025.3 - 0.0 - Partly cloudy 10 - - - -
22/04:00pm 14.9 SSW 9 15 1025.0 - 0.0 - Partly cloudy 10 - - - -
22/03:30pm 15.5 S 13 19 1024.7 - 0.0 - Partly cloudy 10 - - - -
22/03:00pm 15.3 SSW 11 15 1024.6 - 0.0 - Partly cloudy 10 - - - -
22/02:30pm 16.2 S 16 23 1024.3 - 0.0 - Partly cloudy 10 - - - -
22/02:00pm 16.0 S 15 21 1024.1 - 0.0 - Partly cloudy 10 - - - -
22/01:38pm 16.4 SSW 15 25 1024.0 - 0.0 - Partly cloudy 10 - - - -
22/01:30pm 16.0 SSW 11 15 1024.0 - 0.0 - Partly cloudy 10 - - - -
22/01:00pm 15.6 SSW 14 21 1023.9 - 0.0 - Partly cloudy 10 - - - -
22/12:39pm 15.2 SSW 15 25 1023.9 - 0.0 - Partly cloudy 10 - - - -
22/12:30pm 15.0 SSW 11 17 1024.0 - 0.0 - Partly cloudy 10 - - - -
22/12:00pm 12.9 SSW 11 19 1024.3 - 0.0 - Cloudy 9 - - - -
22/11:39am 12.6 SW 10 16 1024.3 - 0.0 - Partly cloudy 10 - - - -
22/11:30am 12.1 SW 12 17 1024.5 - 0.0 - Partly cloudy 6 - - - -
22/11:23am 12.6 SSW 13 18 1024.6 - 0.0 - Partly cloudy 5 - - - -
22/11:00am 13.8 SSW 15 26 1024.6 - 0.0 - Partly cloudy 10 - - - -
22/10:57am 13.9 SSW 15 26 1024.5 - 0.0 - Partly cloudy 10 - - - -
22/10:30am 13.7 SSW 16 25 1024.1 - 0.0 - Partly cloudy 10 - - - -
22/10:00am 13.6 SW 16 23 1023.8 - 0.0 - Partly cloudy 10 - - - -
22/09:30am 13.5 SSW 13 17 1023.4 - 0.0 - Cloudy 10 - - - -
22/09:00am 13.0 SW 16 23 1023.3 - 31.6 - Cloudy 10 - - - -
22/08:30am 12.3 SW 17 22 1022.8 - 31.6 - Partly cloudy 10 - - - -
22/08:00am 11.9 SW 13 16 1022.3 - 31.6 - Partly cloudy 10 - - - -
22/07:30am 11.7 SW 13 18 1021.8 - 31.4 - Partly cloudy 10 - - - -
22/07:29am 11.7 SW 13 18 1021.7 - 31.4 - Partly cloudy 10 - - - -
22/07:16am 11.6 SW 14 21 1021.6 - 31.4 - Partly cloudy 5 - - - -
22/07:11am 11.6 SW 15 22 1021.6 - 31.2 - Partly cloudy 8 - - - -
22/07:00am 11.6 SSW 13 21 1021.5 - 30.8 - Partly cloudy 5 - - - -
22/06:45am 11.7 SW 18 23 1021.2 - 29.6 - Partly cloudy 5 - - - -
22/06:35am 11.9 SW 17 24 1021.0 - 29.2 - Partly cloudy 10 - - - -
22/06:30am 12.1 SW 15 24 1020.9 - 29.2 - Partly cloudy 10 - - - -
22/06:28am 12.2 SW 15 24 1020.9 - 29.2 - Partly cloudy 10 - - - -
22/06:08am 13.1 S 9 16 1020.4 - 28.4 - Partly cloudy 4 - - - -
22/06:06am 13.2 S 9 16 1020.5 - 28.0 - Partly cloudy 5 - - - -
22/06:00am 13.4 S 10 15 1020.4 - 26.6 Recent precip. Cloudy 10 - - - -
22/05:55am 13.2 SSW 13 22 1020.3 - 26.6 - Partly cloudy 10 - - - -
22/05:51am 13.4 SSW 15 25 1020.0 - 26.6 - Partly cloudy 10 - - - -
22/05:30am 13.4 S 15 24 1019.8 - 25.0 - Partly cloudy 3 - - - -
22/05:26am 13.4 SSW 15 24 1019.6 - 24.6 - Partly cloudy 4 - - - -
22/05:23am 13.3 SSW 14 20 1019.6 - 23.6 - Partly cloudy 5 - - - -
22/05:12am 12.9 SW 12 19 1019.5 - 22.6 - Partly cloudy 10 - - - -
22/05:00am 12.7 SW 10 15 1019.4 - 22.6 - Partly cloudy 4 - - - -
22/04:45am 12.6 SW 6 11 1019.6 - 20.2 - Partly cloudy 5 - - - -
22/04:44am 12.5 SW 6 10 1019.6 - 20.0 - Partly cloudy 6 - - - -
22/04:42am 12.6 SW 6 9 1019.6 - 20.0 - Partly cloudy 7 - - - -
22/04:30am 12.5 SW 9 13 1019.7 - 19.2 - Partly cloudy 3 - - - -
22/04:00am 12.4 SW 9 15 1019.5 - 14.2 - Partly cloudy 3 - - - -
22/03:30am 12.3 WSW 9 13 1019.5 - 10.2 - Partly cloudy 4 - - - -
22/03:00am 12.3 SW 11 16 1019.9 - 6.6 Rain Mostly cloudy 5 - - - -
22/02:45am 12.4 SW 10 13 1020.1 - 4.8 - Partly cloudy 5 - - - -
22/02:42am 12.4 SW 11 15 1020.1 - 4.4 - Partly cloudy 6 - - - -
22/02:30am 12.4 SW 12 17 1020.0 - 3.2 - Partly cloudy 5 - - - -
22/02:27am 12.4 SSW 11 15 1020.1 - 2.8 - Partly cloudy 5 - - - -
22/02:00am 12.5 SW 11 15 1019.8 - 1.0 - Partly cloudy 10 - - - -
22/01:30am 12.7 SW 10 15 1019.9 - 0.8 - Partly cloudy 10 - - - -
22/01:00am 12.6 SW 9 13 1019.8 - 0.6 - Partly cloudy 10 - - - -
22/12:30am 12.6 SW 11 15 1020.1 - 0.6 - Partly cloudy 9 - - - -
22/12:00am 12.8 SW 13 18 1020.1 - 0.4 - Cloudy 10 - - - -
 
Date/Time
EST
Temp

°C
Wind Pressure Rain
since 9am
mm
Weather Cloud Vis
km
Sea
Height
m
Swell
Dir
 
Speed
knots
Gust
knots
hPa Trend Height
m
Period
s
Dir
21/11:30pm 13.1 SW 12 19 1020.2 - 0.4 - Partly cloudy 10 - - - -
21/11:00pm 12.9 SW 11 17 1020.1 - 0.4 - Partly cloudy 10 - - - -
21/10:30pm 13.3 SW 11 19 1020.3 - 0.2 - Partly cloudy 10 - - - -
21/10:00pm 13.9 SW 12 17 1020.0 - 0.2 - Partly cloudy 10 - - - -
21/09:30pm 14.1 SSW 10 14 1020.1 - 0.2 - Partly cloudy 10 - - - -
21/09:00pm 14.4 SSW 9 11 1020.1 - 0.2 - Cloudy 10 - - - -
21/08:30pm 14.4 SW 9 12 1019.9 - 0.2 - Cloudy 10 - - - -
21/08:00pm 13.9 SW 6 7 1019.6 - 0.2 - Partly cloudy 10 - - - -
21/07:30pm 14.3 SW 7 9 1019.7 - 0.2 - Partly cloudy 10 - - - -
21/07:00pm 14.1 SW 7 10 1019.8 - 0.2 - Cloudy 10 - - - -
21/06:30pm 14.2 WSW 6 8 1019.7 - 0.2 - Cloudy 10 - - - -
21/06:00pm 14.0 WSW 5 7 1019.5 - 0.2 - Cloudy 10 - - - -
21/05:30pm 14.4 SW 7 9 1019.4 - 0.2 - Partly cloudy 10 - - - -
21/05:00pm 14.5 SW 6 8 1019.2 - 0.2 - Partly cloudy 10 - - - -
21/04:30pm 15.4 SW 7 9 1019.1 - 0.0 - Partly cloudy 10 - - - -
21/04:00pm 15.9 SW 7 10 1018.9 - 0.0 - Partly cloudy 10 - - - -
21/03:30pm 16.0 SSW 9 12 1018.7 - 0.0 - Partly cloudy 10 - - - -
21/03:00pm 16.5 S 12 17 1018.6 - 0.0 - Cloudy 10 - - - -
21/02:30pm 17.0 S 13 18 1018.5 - 0.0 - Partly cloudy 10 - - - -
21/02:00pm 17.0 S 13 19 1018.5 - 0.0 - Partly cloudy 10 - - - -
21/01:30pm 17.3 S 13 19 1018.5 - 0.0 - Partly cloudy 10 - - - -
21/01:00pm 17.2 SSE 15 20 1018.6 - 0.0 - Partly cloudy 10 - - - -
21/12:30pm 19.1 S 11 17 1018.8 - 0.0 - Partly cloudy 10 - - - -
21/12:00pm 18.9 SSW 6 9 1019.0 - 0.0 - Mostly clear 10 - - - -
21/11:30am 19.1 W 6 9 1019.2 - 0.0 - Partly cloudy 10 - - - -
21/11:00am 18.1 WSW 7 11 1019.4 - 0.0 - Partly cloudy 10 - - - -
21/10:30am 17.5 WSW 7 10 1019.3 - 0.0 - Partly cloudy 10 - - - -
21/10:00am 17.3 W 6 8 1019.3 - 0.0 - Partly cloudy 10 - - - -
21/09:30am 14.8 W 5 8 1019.2 - 0.0 - Partly cloudy 10 - - - -
21/09:00am 14.0 W 6 9 1019.0 - 0.2 - Mostly cloudy 10 - - - -
21/08:30am 13.1 W 5 8 1018.8 - 0.2 - Partly cloudy 10 - - - -
21/08:00am 12.8 W 6 9 1018.7 - 0.2 - Partly cloudy 10 - - - -
21/07:30am 12.7 W 6 8 1018.4 - 0.2 - Partly cloudy 10 - - - -
21/07:00am 12.3 SW 7 9 1018.0 - 0.2 - Partly cloudy 9 - - - -
21/06:30am 12.3 W 7 9 1017.7 - 0.2 - Partly cloudy 10 - - - -
21/06:00am 10.9 WSW 4 5 1017.2 - 0.2 - Partly cloudy 10 - - - -
21/05:30am 9.8 WSW 5 7 1016.7 - 0.2 - Partly cloudy 10 - - - -
21/05:00am 10.7 WSW 3 5 1016.5 - 0.2 - Partly cloudy 10 - - - -
21/04:30am 12.1 W 4 6 1016.4 - 0.2 - Partly cloudy 10 - - - -
21/04:00am 12.1 W 6 7 1016.2 - 0.2 - Partly cloudy 10 - - - -
21/03:30am 11.2 WSW 4 5 1016.2 - 0.2 - Partly cloudy 8 - - - -
21/03:00am 11.8 WSW 3 5 1016.2 - 0.2 - Mostly clear 10 - - - -
21/02:30am 11.4 W 5 7 1015.8 - 0.2 - Partly cloudy 10 - - - -
21/02:00am 10.4 SW 7 9 1015.7 - 0.2 - - 10 - - - -
21/01:30am 8.8 CALM 0 0 1015.4 - 0.2 - - 10 - - - -
21/01:00am 9.3 CALM 0 0 1015.2 - 0.2 - - 10 - - - -
21/12:30am 9.4 CALM 0 0 1015.2 - 0.2 - - 9 - - - -
21/12:00am 10.5 CALM 0 0 1015.3 - 0.2 - Mostly clear 7 - - - -
 
Date/Time
EST
Temp

°C
Wind Pressure Rain
since 9am
mm
Weather Cloud Vis
km
Sea
Height
m
Swell
Dir
 
Speed
knots
Gust
knots
hPa Trend Height
m
Period
s
Dir
20/11:30pm 11.1 NW 5 6 1015.2 - 0.2 - - 7 - - - -
20/11:00pm 12.1 CALM 0 0 1015.2 - 0.2 - - 10 - - - -
20/10:30pm 13.6 W 2 6 1015.2 - 0.2 - - 10 - - - -
20/10:00pm 15.5 WNW 4 7 1015.0 - 0.2 - - 10 - - - -
20/09:30pm 14.9 W 6 9 1014.8 - 0.2 - - 10 - - - -
20/09:00pm 15.2 WSW 3 6 1014.8 - 0.2 - Mostly cloudy 10 - - - -
20/08:30pm 14.9 WNW 6 8 1014.7 - 0.2 - - 10 - - - -
20/08:00pm 14.2 WSW 2 4 1014.6 - 0.2 - - 10 - - - -
20/07:30pm 13.4 CALM 0 3 1014.2 - 0.2 - - 10 - - - -
20/07:00pm 13.9 CALM 0 2 1013.7 - 0.2 - - 10 - - - -
20/06:30pm 14.6 WNW 3 4 1013.5 - 0.2 - - 10 - - - -
20/06:00pm 15.1 CALM 0 0 1013.0 - 0.2 - Mostly clear 9 - - - -
20/05:30pm 17.0 CALM 0 2 1012.6 - 0.2 - - 10 - - - -
20/05:00pm 18.4 NNW 3 5 1012.4 - 0.2 - - 10 - - - -
20/04:30pm 19.9 NNW 4 8 1012.1 - 0.2 - - 10 - - - -
20/04:00pm 20.5 NW 2 6 1011.9 - 0.2 - - 9 - - - -
20/03:30pm 22.0 NW 5 11 1011.6 - 0.2 - - 10 - - - -
20/03:00pm 22.7 NNW 3 6 1011.7 - 0.2 - - 10 - - - -
20/02:30pm 21.9 NW 3 6 1011.4 - 0.2 - - 10 - - - -
20/02:00pm 21.9 NNW 5 7 1011.6 - 0.2 - - 10 - - - -
20/01:30pm 23.0 NW 8 13 1011.7 - 0.2 - - 10 - - - -
20/01:00pm 23.8 N 6 9 1011.6 - 0.2 - - 10 - - - -

Other Formats:

Comma delimited format used in spreadsheet applications
http://www.bom.gov.au/fwo/IDN60701/IDN60701.95937.axf

JavaScript Object Notation format (JSON) in row-major order
http://www.bom.gov.au/fwo/IDN60701/IDN60701.95937.json